sensor_id;sensor_type;location;lat;lon;timestamp;temperature;humidity
3478;DHT22;37937;61.490;23.506;2023-06-22T00:01:48;18.90;1.00
3478;DHT22;37937;61.490;23.506;2023-06-22T00:04:13;18.90;1.00
3478;DHT22;37937;61.490;23.506;2023-06-22T00:06:39;18.80;1.00
3478;DHT22;37937;61.490;23.506;2023-06-22T00:09:04;18.80;1.00
3478;DHT22;37937;61.490;23.506;2023-06-22T00:11:33;18.80;1.00
3478;DHT22;37937;61.490;23.506;2023-06-22T00:13:59;18.70;1.00
3478;DHT22;37937;61.490;23.506;2023-06-22T00:16:25;18.70;1.00
3478;DHT22;37937;61.490;23.506;2023-06-22T00:18:50;18.70;1.00
3478;DHT22;37937;61.490;23.506;2023-06-22T00:21:16;18.70;1.00
3478;DHT22;37937;61.490;23.506;2023-06-22T00:23:42;18.70;1.00
3478;DHT22;37937;61.490;23.506;2023-06-22T00:26:08;18.70;1.00
3478;DHT22;37937;61.490;23.506;2023-06-22T00:28:34;18.60;1.00
3478;DHT22;37937;61.490;23.506;2023-06-22T00:30:59;18.60;1.00
3478;DHT22;37937;61.490;23.506;2023-06-22T00:33:26;18.60;1.00
3478;DHT22;37937;61.490;23.506;2023-06-22T00:35:51;18.50;1.00
3478;DHT22;37937;61.490;23.506;2023-06-22T00:38:19;18.40;1.00
3478;DHT22;37937;61.490;23.506;2023-06-22T00:40:44;18.50;1.00
3478;DHT22;37937;61.490;23.506;2023-06-22T00:43:10;18.50;1.00
3478;DHT22;37937;61.490;23.506;2023-06-22T00:45:36;18.40;1.00
3478;DHT22;37937;61.490;23.506;2023-06-22T00:48:02;18.50;1.00
3478;DHT22;37937;61.490;23.506;2023-06-22T00:50:31;18.40;1.00
3478;DHT22;37937;61.490;23.506;2023-06-22T00:52:59;18.40;1.00
3478;DHT22;37937;61.490;23.506;2023-06-22T00:55:25;18.30;1.00
3478;DHT22;37937;61.490;23.506;2023-06-22T00:57:51;18.30;1.00
3478;DHT22;37937;61.490;23.506;2023-06-22T01:00:21;18.30;1.00
3478;DHT22;37937;61.490;23.506;2023-06-22T01:02:50;18.20;1.00
3478;DHT22;37937;61.490;23.506;2023-06-22T01:05:18;18.30;1.00
3478;DHT22;37937;61.490;23.506;2023-06-22T01:10:41;18.20;1.00
3478;DHT22;37937;61.490;23.506;2023-06-22T01:13:16;18.20;1.00
3478;DHT22;37937;61.490;23.506;2023-06-22T01:15:53;18.10;1.00
3478;DHT22;37937;61.490;23.506;2023-06-22T01:18:21;18.10;1.00
3478;DHT22;37937;61.490;23.506;2023-06-22T01:20:52;18.10;1.00
3478;DHT22;37937;61.490;23.506;2023-06-22T01:23:21;18.10;1.00
3478;DHT22;37937;61.490;23.506;2023-06-22T01:25:59;18.10;1.00
3478;DHT22;37937;61.490;23.506;2023-06-22T01:30:59;18.10;1.00
3478;DHT22;37937;61.490;23.506;2023-06-22T01:33:32;18.10;1.00
3478;DHT22;37937;61.490;23.506;2023-06-22T01:35:58;18.20;1.00
3478;DHT22;37937;61.490;23.506;2023-06-22T01:38:24;18.20;1.00
3478;DHT22;37937;61.490;23.506;2023-06-22T01:40:50;18.10;1.00
3478;DHT22;37937;61.490;23.506;2023-06-22T01:43:16;17.90;1.00
3478;DHT22;37937;61.490;23.506;2023-06-22T01:45:42;17.90;1.00
3478;DHT22;37937;61.490;23.506;2023-06-22T01:48:08;18.00;1.00
3478;DHT22;37937;61.490;23.506;2023-06-22T01:50:33;18.00;1.00
3478;DHT22;37937;61.490;23.506;2023-06-22T01:52:59;18.00;1.00
3478;DHT22;37937;61.490;23.506;2023-06-22T01:55:24;18.10;1.00
3478;DHT22;37937;61.490;23.506;2023-06-22T01:57:50;18.10;1.00
3478;DHT22;37937;61.490;23.506;2023-06-22T02:00:18;18.20;1.00
3478;DHT22;37937;61.490;23.506;2023-06-22T02:05:16;18.20;1.00
3478;DHT22;37937;61.490;23.506;2023-06-22T02:10:27;18.30;1.00
3478;DHT22;37937;61.490;23.506;2023-06-22T02:12:53;18.30;1.00
3478;DHT22;37937;61.490;23.506;2023-06-22T02:15:19;18.30;1.00
3478;DHT22;37937;61.490;23.506;2023-06-22T02:17:45;18.20;1.00
3478;DHT22;37937;61.490;23.506;2023-06-22T02:20:19;18.20;1.00
3478;DHT22;37937;61.490;23.506;2023-06-22T02:22:45;18.30;1.00
3478;DHT22;37937;61.490;23.506;2023-06-22T02:25:11;18.40;1.00
3478;DHT22;37937;61.490;23.506;2023-06-22T02:27:36;18.40;1.00
3478;DHT22;37937;61.490;23.506;2023-06-22T02:30:06;18.50;1.00
3478;DHT22;37937;61.490;23.506;2023-06-22T02:32:32;18.50;1.00
3478;DHT22;37937;61.490;23.506;2023-06-22T02:35:00;18.50;1.70
3478;DHT22;37937;61.490;23.506;2023-06-22T02:37:30;18.50;1.00
3478;DHT22;37937;61.490;23.506;2023-06-22T02:39:57;18.60;1.00
3478;DHT22;37937;61.490;23.506;2023-06-22T02:42:23;18.60;1.00
3478;DHT22;37937;61.490;23.506;2023-06-22T02:44:49;18.80;1.00
3478;DHT22;37937;61.490;23.506;2023-06-22T02:47:15;18.80;3.00
3478;DHT22;37937;61.490;23.506;2023-06-22T02:49:41;18.80;10.60
3478;DHT22;37937;61.490;23.506;2023-06-22T02:52:07;18.80;12.90
3478;DHT22;37937;61.490;23.506;2023-06-22T02:54:33;18.80;17.50
3478;DHT22;37937;61.490;23.506;2023-06-22T02:56:59;18.80;20.50
3478;DHT22;37937;61.490;23.506;2023-06-22T02:59:28;18.80;25.10
3478;DHT22;37937;61.490;23.506;2023-06-22T03:01:53;18.80;26.80
3478;DHT22;37937;61.490;23.506;2023-06-22T03:04:19;18.80;27.70
3478;DHT22;37937;61.490;23.506;2023-06-22T03:06:44;18.90;29.50
3478;DHT22;37937;61.490;23.506;2023-06-22T03:09:16;19.00;28.50
3478;DHT22;37937;61.490;23.506;2023-06-22T03:11:42;19.20;28.50
3478;DHT22;37937;61.490;23.506;2023-06-22T03:14:07;19.20;24.50
3478;DHT22;37937;61.490;23.506;2023-06-22T03:16:33;19.30;22.90
3478;DHT22;37937;61.490;23.506;2023-06-22T03:18:59;19.40;23.50
3478;DHT22;37937;61.490;23.506;2023-06-22T03:21:27;19.40;20.80
3478;DHT22;37937;61.490;23.506;2023-06-22T03:23:52;19.50;21.90
3478;DHT22;37937;61.490;23.506;2023-06-22T03:26:18;19.60;20.50
3478;DHT22;37937;61.490;23.506;2023-06-22T03:28:44;19.70;22.80
3478;DHT22;37937;61.490;23.506;2023-06-22T03:31:09;19.80;22.30
3478;DHT22;37937;61.490;23.506;2023-06-22T03:33:35;19.90;21.80
3478;DHT22;37937;61.490;23.506;2023-06-22T03:36:00;20.10;18.40
3478;DHT22;37937;61.490;23.506;2023-06-22T03:38:26;20.30;19.00
3478;DHT22;37937;61.490;23.506;2023-06-22T03:40:52;20.50;15.70
3478;DHT22;37937;61.490;23.506;2023-06-22T03:43:17;20.60;16.10
3478;DHT22;37937;61.490;23.506;2023-06-22T03:45:43;20.40;16.90
3478;DHT22;37937;61.490;23.506;2023-06-22T03:48:11;20.50;15.70
3478;DHT22;37937;61.490;23.506;2023-06-22T03:50:36;20.50;18.20
3478;DHT22;37937;61.490;23.506;2023-06-22T03:53:02;20.50;18.20
3478;DHT22;37937;61.490;23.506;2023-06-22T03:55:28;20.70;16.90
3478;DHT22;37937;61.490;23.506;2023-06-22T03:57:53;20.60;16.50
3478;DHT22;37937;61.490;23.506;2023-06-22T04:00:25;20.60;17.50
3478;DHT22;37937;61.490;23.506;2023-06-22T04:02:50;20.80;17.30
3478;DHT22;37937;61.490;23.506;2023-06-22T04:05:16;20.90;16.70
3478;DHT22;37937;61.490;23.506;2023-06-22T04:07:44;21.10;17.00
3478;DHT22;37937;61.490;23.506;2023-06-22T04:10:09;21.40;14.70
3478;DHT22;37937;61.490;23.506;2023-06-22T04:12:35;21.70;13.10
3478;DHT22;37937;61.490;23.506;2023-06-22T04:15:01;22.10;10.70
3478;DHT22;37937;61.490;23.506;2023-06-22T04:17:27;22.00;7.00
3478;DHT22;37937;61.490;23.506;2023-06-22T04:19:52;22.50;6.60
3478;DHT22;37937;61.490;23.506;2023-06-22T04:22:18;23.00;5.70
3478;DHT22;37937;61.490;23.506;2023-06-22T04:24:44;23.40;1.30
3478;DHT22;37937;61.490;23.506;2023-06-22T04:27:09;23.10;1.00
3478;DHT22;37937;61.490;23.506;2023-06-22T04:29:35;23.10;1.00
3478;DHT22;37937;61.490;23.506;2023-06-22T04:32:01;23.20;1.00
3478;DHT22;37937;61.490;23.506;2023-06-22T04:34:30;23.70;1.70
3478;DHT22;37937;61.490;23.506;2023-06-22T04:36:56;23.70;1.00
3478;DHT22;37937;61.490;23.506;2023-06-22T04:39:22;24.60;1.00
3478;DHT22;37937;61.490;23.506;2023-06-22T04:41:48;24.10;1.00
3478;DHT22;37937;61.490;23.506;2023-06-22T04:44:15;25.00;1.00
3478;DHT22;37937;61.490;23.506;2023-06-22T04:47:07;25.30;1.00
3478;DHT22;37937;61.490;23.506;2023-06-22T04:49:36;25.60;1.00
3478;DHT22;37937;61.490;23.506;2023-06-22T04:52:06;25.10;1.00
3478;DHT22;37937;61.490;23.506;2023-06-22T04:54:32;25.20;1.00
3478;DHT22;37937;61.490;23.506;2023-06-22T04:57:07;25.10;1.00
3478;DHT22;37937;61.490;23.506;2023-06-22T04:59:36;24.40;1.00
3478;DHT22;37937;61.490;23.506;2023-06-22T05:02:01;24.50;1.00
3478;DHT22;37937;61.490;23.506;2023-06-22T05:04:28;24.70;1.00
3478;DHT22;37937;61.490;23.506;2023-06-22T05:06:56;24.70;1.00
3478;DHT22;37937;61.490;23.506;2023-06-22T05:09:22;24.80;1.00
3478;DHT22;37937;61.490;23.506;2023-06-22T05:11:47;24.60;1.00
3478;DHT22;37937;61.490;23.506;2023-06-22T05:14:13;25.00;1.00
3478;DHT22;37937;61.490;23.506;2023-06-22T05:16:40;25.00;1.00
3478;DHT22;37937;61.490;23.506;2023-06-22T05:19:06;24.90;1.00
3478;DHT22;37937;61.490;23.506;2023-06-22T05:21:31;24.50;1.00
3478;DHT22;37937;61.490;23.506;2023-06-22T05:23:57;24.00;1.00
3478;DHT22;37937;61.490;23.506;2023-06-22T05:26:25;23.60;1.00
3478;DHT22;37937;61.490;23.506;2023-06-22T05:28:51;23.80;1.00
3478;DHT22;37937;61.490;23.506;2023-06-22T05:31:17;23.70;1.00
3478;DHT22;37937;61.490;23.506;2023-06-22T05:33:45;23.60;1.00
3478;DHT22;37937;61.490;23.506;2023-06-22T05:36:11;23.50;1.00
3478;DHT22;37937;61.490;23.506;2023-06-22T05:38:38;23.50;1.00
3478;DHT22;37937;61.490;23.506;2023-06-22T05:41:03;23.30;1.00
3478;DHT22;37937;61.490;23.506;2023-06-22T05:43:29;23.20;1.00
3478;DHT22;37937;61.490;23.506;2023-06-22T05:45:55;23.40;1.00
3478;DHT22;37937;61.490;23.506;2023-06-22T05:48:21;23.50;1.00
3478;DHT22;37937;61.490;23.506;2023-06-22T05:50:46;23.60;1.00
3478;DHT22;37937;61.490;23.506;2023-06-22T05:53:12;23.90;1.00
3478;DHT22;37937;61.490;23.506;2023-06-22T05:55:38;23.70;1.00
3478;DHT22;37937;61.490;23.506;2023-06-22T05:58:03;24.00;1.00
3478;DHT22;37937;61.490;23.506;2023-06-22T06:00:29;23.90;1.00
3478;DHT22;37937;61.490;23.506;2023-06-22T06:02:55;23.60;1.00
3478;DHT22;37937;61.490;23.506;2023-06-22T06:05:20;23.70;1.00
3478;DHT22;37937;61.490;23.506;2023-06-22T06:07:46;24.00;1.00
3478;DHT22;37937;61.490;23.506;2023-06-22T06:10:12;24.10;1.00
3478;DHT22;37937;61.490;23.506;2023-06-22T06:12:37;23.70;1.00
3478;DHT22;37937;61.490;23.506;2023-06-22T06:15:03;23.60;1.00
3478;DHT22;37937;61.490;23.506;2023-06-22T06:17:29;23.70;1.00
3478;DHT22;37937;61.490;23.506;2023-06-22T06:19:55;23.60;1.00
3478;DHT22;37937;61.490;23.506;2023-06-22T06:22:20;23.40;1.00
3478;DHT22;37937;61.490;23.506;2023-06-22T06:24:47;23.30;1.00
3478;DHT22;37937;61.490;23.506;2023-06-22T06:27:13;23.40;1.10
3478;DHT22;37937;61.490;23.506;2023-06-22T06:29:38;23.10;1.30
3478;DHT22;37937;61.490;23.506;2023-06-22T06:32:04;23.10;1.50
3478;DHT22;37937;61.490;23.506;2023-06-22T06:34:30;23.00;3.90
3478;DHT22;37937;61.490;23.506;2023-06-22T06:36:55;23.10;5.20
3478;DHT22;37937;61.490;23.506;2023-06-22T06:39:21;23.10;6.20
3478;DHT22;37937;61.490;23.506;2023-06-22T06:41:47;23.00;9.10
3478;DHT22;37937;61.490;23.506;2023-06-22T06:44:12;22.90;9.00
3478;DHT22;37937;61.490;23.506;2023-06-22T06:46:38;22.60;10.30
3478;DHT22;37937;61.490;23.506;2023-06-22T06:49:03;22.40;14.90
3478;DHT22;37937;61.490;23.506;2023-06-22T06:51:29;22.00;19.30
3478;DHT22;37937;61.490;23.506;2023-06-22T06:53:55;22.10;23.00
3478;DHT22;37937;61.490;23.506;2023-06-22T06:56:20;22.10;24.30
3478;DHT22;37937;61.490;23.506;2023-06-22T06:58:46;21.70;25.60
3478;DHT22;37937;61.490;23.506;2023-06-22T07:01:12;21.70;29.90
3478;DHT22;37937;61.490;23.506;2023-06-22T07:03:38;21.80;32.00
3478;DHT22;37937;61.490;23.506;2023-06-22T07:06:03;21.70;37.00
3478;DHT22;37937;61.490;23.506;2023-06-22T07:08:29;21.60;37.40
3478;DHT22;37937;61.490;23.506;2023-06-22T07:10:55;21.50;46.00
3478;DHT22;37937;61.490;23.506;2023-06-22T07:13:20;21.60;55.30
3478;DHT22;37937;61.490;23.506;2023-06-22T07:15:46;21.40;57.30
3478;DHT22;37937;61.490;23.506;2023-06-22T07:18:12;21.20;67.80
3478;DHT22;37937;61.490;23.506;2023-06-22T07:20:37;21.20;74.00
3478;DHT22;37937;61.490;23.506;2023-06-22T07:23:04;21.20;70.50
3478;DHT22;37937;61.490;23.506;2023-06-22T07:25:30;21.00;85.20
3478;DHT22;37937;61.490;23.506;2023-06-22T07:27:57;20.90;95.70
3478;DHT22;37937;61.490;23.506;2023-06-22T07:30:23;20.80;99.70
3478;DHT22;37937;61.490;23.506;2023-06-22T07:32:49;20.70;96.20
3478;DHT22;37937;61.490;23.506;2023-06-22T07:35:14;20.70;99.90
3478;DHT22;37937;61.490;23.506;2023-06-22T07:37:42;20.70;99.90
3478;DHT22;37937;61.490;23.506;2023-06-22T07:40:09;20.70;99.90
3478;DHT22;37937;61.490;23.506;2023-06-22T07:42:35;20.60;99.90
3478;DHT22;37937;61.490;23.506;2023-06-22T07:45:01;20.60;99.90
3478;DHT22;37937;61.490;23.506;2023-06-22T07:47:27;20.60;99.90
3478;DHT22;37937;61.490;23.506;2023-06-22T07:49:54;20.50;99.90
3478;DHT22;37937;61.490;23.506;2023-06-22T07:52:20;20.60;99.90
3478;DHT22;37937;61.490;23.506;2023-06-22T07:54:46;20.60;99.90
3478;DHT22;37937;61.490;23.506;2023-06-22T07:57:12;20.50;99.90
3478;DHT22;37937;61.490;23.506;2023-06-22T07:59:37;20.40;99.90
3478;DHT22;37937;61.490;23.506;2023-06-22T08:02:04;20.30;99.90
3478;DHT22;37937;61.490;23.506;2023-06-22T08:04:30;20.10;99.90
3478;DHT22;37937;61.490;23.506;2023-06-22T08:06:57;20.10;99.90
3478;DHT22;37937;61.490;23.506;2023-06-22T08:09:22;20.20;99.90
3478;DHT22;37937;61.490;23.506;2023-06-22T08:11:48;20.30;99.90
3478;DHT22;37937;61.490;23.506;2023-06-22T08:14:14;20.00;99.90
3478;DHT22;37937;61.490;23.506;2023-06-22T08:16:41;20.10;99.90
3478;DHT22;37937;61.490;23.506;2023-06-22T08:19:06;20.00;99.90
3478;DHT22;37937;61.490;23.506;2023-06-22T08:21:32;19.80;99.90
3478;DHT22;37937;61.490;23.506;2023-06-22T08:23:57;19.60;99.90
3478;DHT22;37937;61.490;23.506;2023-06-22T08:26:23;19.70;99.90
3478;DHT22;37937;61.490;23.506;2023-06-22T08:28:49;19.70;99.90
3478;DHT22;37937;61.490;23.506;2023-06-22T08:31:14;19.90;99.90
3478;DHT22;37937;61.490;23.506;2023-06-22T08:33:40;20.00;99.90
3478;DHT22;37937;61.490;23.506;2023-06-22T08:36:08;19.90;99.90
3478;DHT22;37937;61.490;23.506;2023-06-22T08:38:36;20.00;99.90
3478;DHT22;37937;61.490;23.506;2023-06-22T08:41:01;20.00;99.90
3478;DHT22;37937;61.490;23.506;2023-06-22T08:43:28;20.00;99.90
3478;DHT22;37937;61.490;23.506;2023-06-22T08:45:53;20.00;99.90
3478;DHT22;37937;61.490;23.506;2023-06-22T08:48:19;20.00;99.90
3478;DHT22;37937;61.490;23.506;2023-06-22T08:50:44;19.90;99.90
3478;DHT22;37937;61.490;23.506;2023-06-22T08:53:10;19.90;99.90
3478;DHT22;37937;61.490;23.506;2023-06-22T08:55:36;19.90;99.90
3478;DHT22;37937;61.490;23.506;2023-06-22T08:58:01;19.90;99.90
3478;DHT22;37937;61.490;23.506;2023-06-22T09:00:29;19.80;99.90
3478;DHT22;37937;61.490;23.506;2023-06-22T09:03:00;19.80;99.90
3478;DHT22;37937;61.490;23.506;2023-06-22T09:05:25;19.80;99.90
3478;DHT22;37937;61.490;23.506;2023-06-22T09:07:56;19.80;99.90
3478;DHT22;37937;61.490;23.506;2023-06-22T09:10:21;19.60;99.90
3478;DHT22;37937;61.490;23.506;2023-06-22T09:12:47;19.60;99.90
3478;DHT22;37937;61.490;23.506;2023-06-22T09:15:13;19.50;99.90
3478;DHT22;37937;61.490;23.506;2023-06-22T09:17:40;19.80;99.90
3478;DHT22;37937;61.490;23.506;2023-06-22T09:20:06;19.80;99.90
3478;DHT22;37937;61.490;23.506;2023-06-22T09:22:32;19.70;99.90
3478;DHT22;37937;61.490;23.506;2023-06-22T09:24:58;19.70;99.90
3478;DHT22;37937;61.490;23.506;2023-06-22T09:27:25;19.40;99.90
3478;DHT22;37937;61.490;23.506;2023-06-22T09:29:50;19.40;99.90
3478;DHT22;37937;61.490;23.506;2023-06-22T09:32:16;19.40;99.90
3478;DHT22;37937;61.490;23.506;2023-06-22T09:34:41;19.40;99.90
3478;DHT22;37937;61.490;23.506;2023-06-22T09:37:07;19.40;99.90
3478;DHT22;37937;61.490;23.506;2023-06-22T09:39:33;19.60;99.90
3478;DHT22;37937;61.490;23.506;2023-06-22T09:41:59;19.60;99.90
3478;DHT22;37937;61.490;23.506;2023-06-22T09:44:25;19.60;99.90
3478;DHT22;37937;61.490;23.506;2023-06-22T09:46:51;19.70;99.90
3478;DHT22;37937;61.490;23.506;2023-06-22T09:49:16;19.80;99.90
3478;DHT22;37937;61.490;23.506;2023-06-22T09:51:42;19.80;99.90
3478;DHT22;37937;61.490;23.506;2023-06-22T09:54:08;19.70;99.90
3478;DHT22;37937;61.490;23.506;2023-06-22T09:56:33;19.70;99.90
3478;DHT22;37937;61.490;23.506;2023-06-22T09:58:59;19.60;99.90
3478;DHT22;37937;61.490;23.506;2023-06-22T10:01:25;19.60;99.90
3478;DHT22;37937;61.490;23.506;2023-06-22T10:03:52;19.60;99.90
3478;DHT22;37937;61.490;23.506;2023-06-22T10:06:19;19.60;99.90
3478;DHT22;37937;61.490;23.506;2023-06-22T10:08:45;19.70;99.90
3478;DHT22;37937;61.490;23.506;2023-06-22T10:11:11;19.70;99.90
3478;DHT22;37937;61.490;23.506;2023-06-22T10:13:36;19.70;99.90
3478;DHT22;37937;61.490;23.506;2023-06-22T10:16:02;19.60;99.90
3478;DHT22;37937;61.490;23.506;2023-06-22T10:18:27;19.60;99.90
3478;DHT22;37937;61.490;23.506;2023-06-22T10:20:53;19.50;99.90
3478;DHT22;37937;61.490;23.506;2023-06-22T10:23:19;19.60;99.90
3478;DHT22;37937;61.490;23.506;2023-06-22T10:25:45;19.60;99.90
3478;DHT22;37937;61.490;23.506;2023-06-22T10:28:11;19.60;99.90
3478;DHT22;37937;61.490;23.506;2023-06-22T10:30:38;19.40;99.90
3478;DHT22;37937;61.490;23.506;2023-06-22T10:33:03;19.60;99.90
3478;DHT22;37937;61.490;23.506;2023-06-22T10:35:29;19.70;99.90
3478;DHT22;37937;61.490;23.506;2023-06-22T10:37:55;19.90;99.90
3478;DHT22;37937;61.490;23.506;2023-06-22T10:40:21;19.90;99.90
3478;DHT22;37937;61.490;23.506;2023-06-22T10:42:47;19.60;99.90
3478;DHT22;37937;61.490;23.506;2023-06-22T10:45:12;19.60;99.90
3478;DHT22;37937;61.490;23.506;2023-06-22T10:47:39;19.50;99.90
3478;DHT22;37937;61.490;23.506;2023-06-22T10:50:04;19.50;99.90
3478;DHT22;37937;61.490;23.506;2023-06-22T10:52:30;19.50;99.90
3478;DHT22;37937;61.490;23.506;2023-06-22T10:54:56;19.50;99.90
3478;DHT22;37937;61.490;23.506;2023-06-22T10:57:21;19.50;99.90
3478;DHT22;37937;61.490;23.506;2023-06-22T10:59:47;19.70;99.90
3478;DHT22;37937;61.490;23.506;2023-06-22T11:02:13;19.80;99.90
3478;DHT22;37937;61.490;23.506;2023-06-22T11:04:38;20.10;99.90
3478;DHT22;37937;61.490;23.506;2023-06-22T11:07:04;19.80;99.90
3478;DHT22;37937;61.490;23.506;2023-06-22T11:09:30;19.90;99.90
3478;DHT22;37937;61.490;23.506;2023-06-22T11:11:56;20.00;99.90
3478;DHT22;37937;61.490;23.506;2023-06-22T11:14:23;19.90;99.90
3478;DHT22;37937;61.490;23.506;2023-06-22T11:16:50;20.00;99.90
3478;DHT22;37937;61.490;23.506;2023-06-22T11:19:15;20.00;99.90
3478;DHT22;37937;61.490;23.506;2023-06-22T11:21:41;20.10;99.90
3478;DHT22;37937;61.490;23.506;2023-06-22T11:24:06;20.10;99.90
3478;DHT22;37937;61.490;23.506;2023-06-22T11:26:32;19.90;99.90
3478;DHT22;37937;61.490;23.506;2023-06-22T11:28:58;20.00;99.90
3478;DHT22;37937;61.490;23.506;2023-06-22T11:31:24;20.00;99.90
3478;DHT22;37937;61.490;23.506;2023-06-22T11:33:49;20.00;99.90
3478;DHT22;37937;61.490;23.506;2023-06-22T11:36:15;20.00;99.90
3478;DHT22;37937;61.490;23.506;2023-06-22T11:38:41;20.10;99.90
3478;DHT22;37937;61.490;23.506;2023-06-22T11:41:08;20.20;99.90
3478;DHT22;37937;61.490;23.506;2023-06-22T11:43:33;20.20;99.90
3478;DHT22;37937;61.490;23.506;2023-06-22T11:46:00;20.10;99.90
3478;DHT22;37937;61.490;23.506;2023-06-22T11:48:27;20.10;99.90
3478;DHT22;37937;61.490;23.506;2023-06-22T11:50:54;20.10;99.90
3478;DHT22;37937;61.490;23.506;2023-06-22T11:53:21;20.00;99.90
3478;DHT22;37937;61.490;23.506;2023-06-22T11:55:47;20.00;99.90
3478;DHT22;37937;61.490;23.506;2023-06-22T11:58:12;20.20;99.90
3478;DHT22;37937;61.490;23.506;2023-06-22T12:00:38;20.10;99.90
3478;DHT22;37937;61.490;23.506;2023-06-22T12:03:04;20.00;99.90
3478;DHT22;37937;61.490;23.506;2023-06-22T12:05:30;20.10;99.90
3478;DHT22;37937;61.490;23.506;2023-06-22T12:07:55;20.10;99.90
3478;DHT22;37937;61.490;23.506;2023-06-22T12:10:21;20.10;99.90
3478;DHT22;37937;61.490;23.506;2023-06-22T12:12:47;19.90;99.90
3478;DHT22;37937;61.490;23.506;2023-06-22T12:15:13;19.80;99.90
3478;DHT22;37937;61.490;23.506;2023-06-22T12:17:38;19.70;99.90
3478;DHT22;37937;61.490;23.506;2023-06-22T12:20:05;19.80;99.90
3478;DHT22;37937;61.490;23.506;2023-06-22T12:22:33;19.80;99.90
3478;DHT22;37937;61.490;23.506;2023-06-22T12:24:59;19.80;99.90
3478;DHT22;37937;61.490;23.506;2023-06-22T12:27:25;19.90;99.90
3478;DHT22;37937;61.490;23.506;2023-06-22T12:29:51;19.70;99.90
3478;DHT22;37937;61.490;23.506;2023-06-22T12:32:16;19.80;99.90
3478;DHT22;37937;61.490;23.506;2023-06-22T12:34:42;19.80;99.90
3478;DHT22;37937;61.490;23.506;2023-06-22T12:37:08;19.80;99.90
3478;DHT22;37937;61.490;23.506;2023-06-22T12:39:34;19.80;99.90
3478;DHT22;37937;61.490;23.506;2023-06-22T12:41:59;19.80;99.90
3478;DHT22;37937;61.490;23.506;2023-06-22T12:44:25;19.80;99.90
3478;DHT22;37937;61.490;23.506;2023-06-22T12:46:51;19.60;99.90
3478;DHT22;37937;61.490;23.506;2023-06-22T12:49:16;19.50;99.90
3478;DHT22;37937;61.490;23.506;2023-06-22T12:51:43;19.60;99.90
3478;DHT22;37937;61.490;23.506;2023-06-22T12:54:08;19.60;99.90
3478;DHT22;37937;61.490;23.506;2023-06-22T12:56:34;19.60;99.90
3478;DHT22;37937;61.490;23.506;2023-06-22T12:59:00;19.60;99.90
3478;DHT22;37937;61.490;23.506;2023-06-22T13:01:28;19.60;99.90
3478;DHT22;37937;61.490;23.506;2023-06-22T13:03:55;19.70;99.90
3478;DHT22;37937;61.490;23.506;2023-06-22T13:06:21;19.70;99.90
3478;DHT22;37937;61.490;23.506;2023-06-22T13:08:46;19.60;99.90
3478;DHT22;37937;61.490;23.506;2023-06-22T13:11:12;19.60;99.90
3478;DHT22;37937;61.490;23.506;2023-06-22T13:13:38;19.60;99.90
3478;DHT22;37937;61.490;23.506;2023-06-22T13:16:04;19.60;99.90
3478;DHT22;37937;61.490;23.506;2023-06-22T13:18:29;19.50;99.90
3478;DHT22;37937;61.490;23.506;2023-06-22T13:20:55;19.60;99.90
3478;DHT22;37937;61.490;23.506;2023-06-22T13:23:21;19.50;99.90
3478;DHT22;37937;61.490;23.506;2023-06-22T13:25:47;19.30;99.90
3478;DHT22;37937;61.490;23.506;2023-06-22T13:28:12;19.40;99.90
3478;DHT22;37937;61.490;23.506;2023-06-22T13:30:39;19.40;99.90
3478;DHT22;37937;61.490;23.506;2023-06-22T13:33:05;19.50;99.90
3478;DHT22;37937;61.490;23.506;2023-06-22T13:35:31;19.60;99.90
3478;DHT22;37937;61.490;23.506;2023-06-22T13:37:56;19.60;99.90
3478;DHT22;37937;61.490;23.506;2023-06-22T13:40:22;19.60;99.90
3478;DHT22;37937;61.490;23.506;2023-06-22T13:42:47;19.70;99.90
3478;DHT22;37937;61.490;23.506;2023-06-22T13:45:13;19.70;99.90
3478;DHT22;37937;61.490;23.506;2023-06-22T13:47:39;19.80;99.90
3478;DHT22;37937;61.490;23.506;2023-06-22T13:50:05;19.60;99.90
3478;DHT22;37937;61.490;23.506;2023-06-22T13:52:30;19.70;99.90
3478;DHT22;37937;61.490;23.506;2023-06-22T13:54:56;19.80;99.90
3478;DHT22;37937;61.490;23.506;2023-06-22T13:57:21;19.90;99.90
3478;DHT22;37937;61.490;23.506;2023-06-22T13:59:47;20.00;99.90
3478;DHT22;37937;61.490;23.506;2023-06-22T14:02:13;20.00;99.90
3478;DHT22;37937;61.490;23.506;2023-06-22T14:04:39;20.00;99.90
3478;DHT22;37937;61.490;23.506;2023-06-22T14:07:04;20.10;99.90
3478;DHT22;37937;61.490;23.506;2023-06-22T14:09:30;20.10;99.90
3478;DHT22;37937;61.490;23.506;2023-06-22T14:11:55;20.10;99.90
3478;DHT22;37937;61.490;23.506;2023-06-22T14:14:21;20.20;99.90
3478;DHT22;37937;61.490;23.506;2023-06-22T14:16:47;20.30;99.90
3478;DHT22;37937;61.490;23.506;2023-06-22T14:19:16;20.20;99.90
3478;DHT22;37937;61.490;23.506;2023-06-22T14:21:42;20.20;99.90
3478;DHT22;37937;61.490;23.506;2023-06-22T14:24:08;20.10;99.90
3478;DHT22;37937;61.490;23.506;2023-06-22T14:26:33;20.20;99.90
3478;DHT22;37937;61.490;23.506;2023-06-22T14:28:59;20.20;99.90
3478;DHT22;37937;61.490;23.506;2023-06-22T14:31:24;20.00;99.90
3478;DHT22;37937;61.490;23.506;2023-06-22T14:33:50;20.20;99.90
3478;DHT22;37937;61.490;23.506;2023-06-22T14:36:16;20.20;99.90
3478;DHT22;37937;61.490;23.506;2023-06-22T14:38:42;20.20;99.90
3478;DHT22;37937;61.490;23.506;2023-06-22T14:41:08;20.20;99.90
3478;DHT22;37937;61.490;23.506;2023-06-22T14:43:34;20.20;99.90
3478;DHT22;37937;61.490;23.506;2023-06-22T14:46:00;20.30;99.90
3478;DHT22;37937;61.490;23.506;2023-06-22T14:48:26;20.30;99.90
3478;DHT22;37937;61.490;23.506;2023-06-22T14:50:51;20.20;99.90
3478;DHT22;37937;61.490;23.506;2023-06-22T14:53:17;20.40;99.90
3478;DHT22;37937;61.490;23.506;2023-06-22T14:55:43;20.30;99.90
3478;DHT22;37937;61.490;23.506;2023-06-22T14:58:09;20.20;99.90
3478;DHT22;37937;61.490;23.506;2023-06-22T15:00:35;20.20;99.90
3478;DHT22;37937;61.490;23.506;2023-06-22T15:03:00;20.10;99.90
3478;DHT22;37937;61.490;23.506;2023-06-22T15:05:26;20.10;99.90
3478;DHT22;37937;61.490;23.506;2023-06-22T15:07:51;20.00;99.90
3478;DHT22;37937;61.490;23.506;2023-06-22T15:10:17;20.00;99.90
3478;DHT22;37937;61.490;23.506;2023-06-22T15:12:43;20.00;99.90
3478;DHT22;37937;61.490;23.506;2023-06-22T15:15:08;19.80;99.90
3478;DHT22;37937;61.490;23.506;2023-06-22T15:17:34;19.90;99.90
3478;DHT22;37937;61.490;23.506;2023-06-22T15:20:00;19.80;99.90
3478;DHT22;37937;61.490;23.506;2023-06-22T15:22:25;19.70;99.90
3478;DHT22;37937;61.490;23.506;2023-06-22T15:24:51;19.60;99.90
3478;DHT22;37937;61.490;23.506;2023-06-22T15:27:18;19.70;99.90
3478;DHT22;37937;61.490;23.506;2023-06-22T15:29:44;19.70;99.90
3478;DHT22;37937;61.490;23.506;2023-06-22T15:32:10;19.80;99.90
3478;DHT22;37937;61.490;23.506;2023-06-22T15:34:35;19.70;99.90
3478;DHT22;37937;61.490;23.506;2023-06-22T15:37:01;19.80;99.90
3478;DHT22;37937;61.490;23.506;2023-06-22T15:39:26;19.80;99.90